createdAt,value
2019-02-12T00:00:15.276Z,4.9
2019-02-12T00:03:15.125Z,4.9
2019-02-12T00:06:15.610Z,5.0
2019-02-12T00:09:15.210Z,5.0
2019-02-12T00:12:15.860Z,5.0
2019-02-12T00:15:15.531Z,5.1
2019-02-12T00:18:15.167Z,5.2
2019-02-12T00:21:15.608Z,5.2
2019-02-12T00:24:15.053Z,5.3
2019-02-12T00:27:15.443Z,5.3
2019-02-12T00:30:14.847Z,5.3
2019-02-12T00:33:15.358Z,5.3
2019-02-12T00:36:14.901Z,5.3
2019-02-12T00:39:15.546Z,5.3
2019-02-12T00:42:15.168Z,5.4
2019-02-12T00:45:15.198Z,5.5
2019-02-12T00:48:15.811Z,5.6
2019-02-12T00:51:17.816Z,5.6
2019-02-12T00:54:15.359Z,5.6
2019-02-12T00:57:14.870Z,5.6
2019-02-12T01:00:15.520Z,5.6
2019-02-12T01:03:15.070Z,5.7
2019-02-12T01:06:15.494Z,5.6
2019-02-12T01:09:15.108Z,5.6
2019-02-12T01:12:15.654Z,5.6
2019-02-12T01:15:15.189Z,5.5
2019-02-12T01:18:15.828Z,5.4
2019-02-12T01:21:15.323Z,5.4
2019-02-12T01:24:14.884Z,5.4
2019-02-12T01:27:15.308Z,5.3
2019-02-12T01:30:16.646Z,5.3
2019-02-12T01:33:15.637Z,5.3
2019-02-12T01:36:15.233Z,5.3
2019-02-12T01:39:15.145Z,5.3
2019-02-12T01:42:15.713Z,5.3
2019-02-12T01:45:15.770Z,5.3
2019-02-12T01:48:15.330Z,5.3
2019-02-12T01:51:15.727Z,5.3
2019-02-12T01:54:15.668Z,5.3
2019-02-12T01:57:15.090Z,5.4
2019-02-12T02:00:15.625Z,5.4
2019-02-12T02:03:15.195Z,5.5
2019-02-12T02:06:15.582Z,5.6
2019-02-12T02:09:15.120Z,5.6
2019-02-12T02:12:15.720Z,5.6
2019-02-12T02:15:15.110Z,5.6
2019-02-12T02:18:15.841Z,5.7
2019-02-12T02:21:15.366Z,5.7
2019-02-12T02:24:14.998Z,5.7
2019-02-12T02:27:15.509Z,5.6
2019-02-12T02:30:15.133Z,5.6
2019-02-12T02:33:15.780Z,5.5
2019-02-12T02:36:15.319Z,5.6
2019-02-12T02:39:15.293Z,5.6
2019-02-12T02:42:15.733Z,5.6
2019-02-12T02:45:15.212Z,5.6
2019-02-12T02:48:15.827Z,5.5
2019-02-12T02:51:15.362Z,5.5
2019-02-12T02:54:15.488Z,5.3
2019-02-12T02:57:15.865Z,5.3
2019-02-12T03:00:15.440Z,5.2
2019-02-12T03:03:14.954Z,5.1
2019-02-12T03:06:15.334Z,5.1
2019-02-12T03:09:15.927Z,5.1
2019-02-12T03:12:15.590Z,5.2
2019-02-12T03:15:15.208Z,5.2
2019-02-12T03:18:15.897Z,5.3
2019-02-12T03:21:15.300Z,5.4
2019-02-12T03:24:15.807Z,5.5
2019-02-12T03:27:15.421Z,5.6
2019-02-12T03:30:14.993Z,5.6
2019-02-12T03:33:15.557Z,5.7
2019-02-12T03:36:15.053Z,5.8
2019-02-12T03:39:15.541Z,5.8
2019-02-12T03:42:14.997Z,5.9
2019-02-12T03:45:15.577Z,5.9
2019-02-12T03:48:15.777Z,5.9
2019-02-12T03:51:15.478Z,5.9
2019-02-12T03:54:15.123Z,5.8
2019-02-12T03:57:14.989Z,5.8
2019-02-12T04:00:15.698Z,5.7
2019-02-12T04:03:15.362Z,5.7
2019-02-12T04:06:15.048Z,5.7
2019-02-12T04:09:15.526Z,5.7
2019-02-12T04:12:15.031Z,5.8
2019-02-12T04:15:16.222Z,5.8
2019-02-12T04:18:15.297Z,5.8
2019-02-12T04:21:14.991Z,5.8
2019-02-12T04:24:15.729Z,5.8
2019-02-12T04:27:15.391Z,5.8
2019-02-12T04:30:15.055Z,5.9
2019-02-12T04:33:15.728Z,5.8
2019-02-12T04:36:15.394Z,5.8
2019-02-12T04:39:15.040Z,5.8
2019-02-12T04:42:15.517Z,5.8
2019-02-12T04:45:15.245Z,5.8
2019-02-12T04:48:15.815Z,5.8
2019-02-12T04:51:15.036Z,5.8
2019-02-12T04:54:15.504Z,5.8
2019-02-12T04:57:14.896Z,5.7
2019-02-12T05:00:15.681Z,5.7
2019-02-12T05:03:15.233Z,5.7
2019-02-12T05:06:15.639Z,5.7
2019-02-12T05:09:15.362Z,5.7
2019-02-12T05:12:15.341Z,5.7
2019-02-12T05:15:15.513Z,5.7
2019-02-12T05:18:15.072Z,5.7
2019-02-12T05:21:15.663Z,5.7
2019-02-12T05:24:15.238Z,5.7
2019-02-12T05:27:15.034Z,5.7
2019-02-12T05:30:15.590Z,5.6
2019-02-12T05:33:15.205Z,5.6
2019-02-12T05:36:15.675Z,5.5
2019-02-12T05:39:15.366Z,5.5
2019-02-12T05:42:15.048Z,5.4
2019-02-12T05:45:16.009Z,5.4
2019-02-12T05:48:15.628Z,5.4
2019-02-12T05:51:15.313Z,5.5
2019-02-12T05:54:14.937Z,5.4
2019-02-12T05:57:15.762Z,5.4
2019-02-12T06:00:15.731Z,5.5
2019-02-12T06:03:15.595Z,5.6
2019-02-12T06:06:16.984Z,5.6
2019-02-12T06:09:15.016Z,5.6
2019-02-12T06:12:15.541Z,5.6
2019-02-12T06:15:15.140Z,5.7
2019-02-12T06:18:14.992Z,5.6
2019-02-12T06:21:15.677Z,5.6
2019-02-12T06:24:15.473Z,5.6
2019-02-12T06:27:15.278Z,5.6
2019-02-12T06:30:16.014Z,5.7
2019-02-12T06:33:15.617Z,5.7
2019-02-12T06:36:15.735Z,5.7
2019-02-12T06:39:15.298Z,5.6
2019-02-12T06:43:11.352Z,5.6
2019-02-12T06:48:15.557Z,5.4
2019-02-12T06:51:15.367Z,5.3
2019-02-12T06:54:14.940Z,5.3
2019-02-12T06:57:15.656Z,5.3
2019-02-12T07:00:15.307Z,5.3
2019-02-12T07:03:15.048Z,5.2
2019-02-12T07:06:15.568Z,5.1
2019-02-12T07:09:15.706Z,5.2
2019-02-12T07:12:15.927Z,5.1
2019-02-12T07:15:15.638Z,5.2
2019-02-12T07:18:14.916Z,5.1
2019-02-12T07:21:15.143Z,5.1
2019-02-12T07:24:14.899Z,5.2
2019-02-12T07:27:15.013Z,5.3
2019-02-12T07:30:15.415Z,5.3
2019-02-12T07:33:15.811Z,5.3
2019-02-12T07:36:15.117Z,5.4
2019-02-12T07:39:15.173Z,5.4
2019-02-12T07:42:15.281Z,5.5
2019-02-12T07:45:15.351Z,5.6
2019-02-12T07:48:15.727Z,5.6
2019-02-12T07:51:15.588Z,5.7
2019-02-12T07:54:14.915Z,5.7
2019-02-12T07:57:15.845Z,5.8
2019-02-12T08:00:15.730Z,5.9
2019-02-12T08:03:15.747Z,6.0
2019-02-12T08:06:15.826Z,6.1
2019-02-12T08:09:15.622Z,6.2
2019-02-12T08:12:15.548Z,6.3
2019-02-12T08:15:14.989Z,6.4
2019-02-12T08:18:15.335Z,6.5
2019-02-12T08:21:15.477Z,6.7
2019-02-12T08:24:15.481Z,6.8
2019-02-12T08:27:15.302Z,6.9
2019-02-12T08:30:14.948Z,7.0
2019-02-12T08:33:15.783Z,7.0
2019-02-12T08:36:15.601Z,7.1
2019-02-12T08:39:15.789Z,7.2
2019-02-12T08:42:15.333Z,7.3
2019-02-12T08:45:15.905Z,7.5
2019-02-12T08:48:15.612Z,7.7
2019-02-12T08:51:15.617Z,8.0
2019-02-12T08:54:15.111Z,8.3
2019-02-12T08:57:15.178Z,8.6
2019-02-12T09:00:15.786Z,8.8
2019-02-12T09:03:15.900Z,9.0
2019-02-12T09:06:15.382Z,9.1
2019-02-12T09:09:14.979Z,9.2
2019-02-12T09:12:15.679Z,9.2
2019-02-12T09:15:15.439Z,9.2
2019-02-12T09:18:15.423Z,9.3
2019-02-12T09:21:15.404Z,9.5
2019-02-12T09:24:15.620Z,9.6
2019-02-12T09:27:15.926Z,9.6
2019-02-12T09:30:15.413Z,9.7
2019-02-12T09:33:15.020Z,9.7
2019-02-12T09:36:15.481Z,9.7
2019-02-12T09:39:15.487Z,9.7
2019-02-12T09:42:15.858Z,9.6
2019-02-12T09:45:15.769Z,9.7
2019-02-12T09:48:15.899Z,9.7
2019-02-12T09:51:15.805Z,9.7
2019-02-12T09:54:15.292Z,9.7
2019-02-12T09:57:15.631Z,9.5
2019-02-12T10:00:15.282Z,9.4
2019-02-12T10:03:15.240Z,9.4
2019-02-12T10:06:21.572Z,9.5
2019-02-12T10:09:15.789Z,9.5
2019-02-12T10:12:15.364Z,9.6
2019-02-12T10:15:15.455Z,9.5
2019-02-12T10:18:14.904Z,9.4
2019-02-12T10:21:14.886Z,9.2
2019-02-12T10:24:19.829Z,9.3
2019-02-12T10:27:14.961Z,9.2
2019-02-12T10:30:15.032Z,9.2
2019-02-12T10:33:16.052Z,9.3
2019-02-12T10:36:15.884Z,9.3
2019-02-12T10:39:15.603Z,9.2
2019-02-12T10:42:15.337Z,9.2
2019-02-12T10:45:15.017Z,9.2
2019-02-12T10:48:15.881Z,9.3
2019-02-12T10:51:15.868Z,9.4
2019-02-12T10:54:15.610Z,9.5
2019-02-12T10:57:15.386Z,9.6
2019-02-12T11:00:15.270Z,9.6
2019-02-12T11:03:15.227Z,9.8
2019-02-12T11:06:14.988Z,9.8
2019-02-12T11:09:15.609Z,9.9
2019-02-12T11:12:15.362Z,9.9
2019-02-12T11:15:15.026Z,10.0
2019-02-12T11:18:15.674Z,10.1
2019-02-12T11:21:15.605Z,10.2
2019-02-12T11:24:15.224Z,10.2
2019-02-12T11:27:15.436Z,10.1
2019-02-12T11:30:15.810Z,10.1
2019-02-12T11:33:15.342Z,10.1
2019-02-12T11:36:15.835Z,10.2
2019-02-12T11:39:15.235Z,10.2
2019-02-12T11:42:15.730Z,10.2
2019-02-12T11:45:15.321Z,10.2
2019-02-12T11:48:15.904Z,10.2
2019-02-12T11:51:15.569Z,10.3
2019-02-12T12:03:22.464Z,10.5
2019-02-12T12:09:21.061Z,10.5
2019-02-12T12:12:21.882Z,10.5
2019-02-12T12:15:19.362Z,10.6
2019-02-12T12:21:38.856Z,10.9
2019-02-12T12:24:17.938Z,11.0
2019-02-12T12:27:36.725Z,11.0
2019-02-12T12:30:30.074Z,11.0
2019-02-12T12:33:27.821Z,11.0
2019-02-12T12:36:35.897Z,11.0
2019-02-12T12:39:17.258Z,11.1
2019-02-12T12:42:16.796Z,11.2
2019-02-12T12:45:50.039Z,11.2
2019-02-12T12:48:27.763Z,11.4
2019-02-12T12:54:26.004Z,11.7
2019-02-12T12:57:26.551Z,11.9
2019-02-12T13:00:23.051Z,12.0
2019-02-12T13:03:27.900Z,12.1
2019-02-12T13:06:17.898Z,12.3
2019-02-12T13:09:18.899Z,12.3
2019-02-12T13:15:24.019Z,12.1
2019-02-12T13:28:00.082Z,12.2
2019-02-12T13:30:37.272Z,12.3
2019-02-12T13:33:52.885Z,12.3
2019-02-12T13:36:25.350Z,12.4
2019-02-12T13:39:23.275Z,12.4
2019-02-12T13:42:18.815Z,12.5
2019-02-12T13:45:16.663Z,12.5
2019-02-12T13:48:29.777Z,12.4
2019-02-12T13:51:26.631Z,12.4
2019-02-12T13:57:16.595Z,12.7
2019-02-12T14:00:18.175Z,12.8
2019-02-12T14:03:22.316Z,12.7
2019-02-12T14:06:18.294Z,12.5
2019-02-12T14:09:17.228Z,12.4
2019-02-12T14:12:15.895Z,12.3
2019-02-12T14:15:29.951Z,12.1
2019-02-12T14:18:16.567Z,12.0
2019-02-12T14:21:15.383Z,11.7
2019-02-12T14:24:16.348Z,11.7
2019-02-12T14:27:15.569Z,11.6
2019-02-12T14:30:15.567Z,11.6
2019-02-12T14:33:15.887Z,11.6
2019-02-12T14:36:15.729Z,11.6
2019-02-12T14:39:15.163Z,11.5
2019-02-12T14:42:15.241Z,11.5
2019-02-12T14:45:16.019Z,11.6
2019-02-12T14:48:16.449Z,11.6
2019-02-12T14:51:15.735Z,11.6
2019-02-12T14:54:15.895Z,11.5
2019-02-12T14:57:15.473Z,11.4
2019-02-12T15:00:15.336Z,11.3
2019-02-12T15:03:15.815Z,11.2
2019-02-12T15:06:16.685Z,11.1
2019-02-12T15:09:16.165Z,10.9
2019-02-12T15:12:16.369Z,10.8
2019-02-12T15:15:15.687Z,10.7
2019-02-12T15:18:16.585Z,10.6
2019-02-12T15:21:15.609Z,10.6
2019-02-12T15:24:16.039Z,10.5
2019-02-12T15:27:15.619Z,10.5
2019-02-12T15:30:16.264Z,10.5
2019-02-12T15:33:15.743Z,10.4
2019-02-12T15:36:15.968Z,10.4
2019-02-12T15:39:15.839Z,10.3
2019-02-12T15:42:15.709Z,10.3
2019-02-12T15:45:15.945Z,10.2
2019-02-12T15:48:16.206Z,10.2
2019-02-12T15:51:15.921Z,10.1
2019-02-12T15:54:16.231Z,10.1
2019-02-12T15:57:15.733Z,10.0
2019-02-12T16:00:18.585Z,10.0
2019-02-12T16:03:18.278Z,9.9
2019-02-12T16:06:17.687Z,9.8
2019-02-12T16:21:37.847Z,9.6
2019-02-12T16:26:21.813Z,9.6
2019-02-12T16:39:29.846Z,9.5
2019-02-12T16:41:23.684Z,9.2
2019-02-12T16:48:24.328Z,9.2
2019-02-12T17:08:51.970Z,8.8
2019-02-12T17:27:56.664Z,8.0
2019-02-12T17:28:24.676Z,8.2
2019-02-12T17:30:15.884Z,7.9
2019-02-12T17:33:15.548Z,7.9
2019-02-12T17:36:15.126Z,7.9
2019-02-12T17:39:15.550Z,7.9
2019-02-12T17:42:15.124Z,7.8
2019-02-12T17:45:15.584Z,7.8
2019-02-12T17:48:15.096Z,7.8
2019-02-12T17:51:15.697Z,7.8
2019-02-12T17:54:15.671Z,7.7
2019-02-12T17:57:15.195Z,7.7
2019-02-12T18:00:16.013Z,7.6
2019-02-12T18:03:15.690Z,7.6
2019-02-12T18:06:15.426Z,7.5
2019-02-12T18:09:15.417Z,7.5
2019-02-12T18:12:15.424Z,7.4
2019-02-12T18:15:16.425Z,7.3
2019-02-12T18:18:15.285Z,7.3
2019-02-12T18:21:15.473Z,7.2
2019-02-12T18:24:15.516Z,7.1
2019-02-12T18:27:15.188Z,7.1
2019-02-12T18:30:15.703Z,7.1
2019-02-12T18:33:15.503Z,7.1
2019-02-12T18:36:15.330Z,7.0
2019-02-12T18:39:15.936Z,7.0
2019-02-12T18:42:14.971Z,6.9
2019-02-12T18:45:15.776Z,6.9
2019-02-12T18:48:15.611Z,6.9
2019-02-12T18:51:15.632Z,6.9
2019-02-12T18:54:15.403Z,6.9
2019-02-12T18:57:15.224Z,6.8
2019-02-12T19:00:15.954Z,6.7
2019-02-12T19:03:15.829Z,6.6
2019-02-12T19:06:15.559Z,6.5
2019-02-12T19:09:15.492Z,6.5
2019-02-12T19:12:15.128Z,6.5
2019-02-12T19:15:15.615Z,6.5
2019-02-12T19:18:15.685Z,6.4
2019-02-12T19:21:14.908Z,6.4
2019-02-12T19:24:15.536Z,6.3
2019-02-12T19:27:15.472Z,6.2
2019-02-12T19:30:16.307Z,6.2
2019-02-12T19:33:15.187Z,6.1
2019-02-12T19:36:24.352Z,6.0
2019-02-12T19:39:31.294Z,6.0
2019-02-12T19:44:11.344Z,6.0
2019-02-12T19:45:28.715Z,6.0
2019-02-12T19:48:22.597Z,6.0
2019-02-12T19:51:18.037Z,6.0
2019-02-12T19:54:17.412Z,6.0
2019-02-12T19:57:18.056Z,6.0
2019-02-12T20:00:31.953Z,5.9
2019-02-12T20:03:18.675Z,5.9
2019-02-12T20:06:22.854Z,5.8
2019-02-12T20:11:20.850Z,5.8
2019-02-12T20:12:16.931Z,5.8
2019-02-12T20:16:04.925Z,5.7
2019-02-12T20:27:41.386Z,5.6
2019-02-12T20:27:57.773Z,5.6
2019-02-12T20:33:30.159Z,5.5
2019-02-12T20:36:19.602Z,5.4
2019-02-12T20:42:40.607Z,5.4
2019-02-12T20:48:35.640Z,5.4
2019-02-12T20:48:36.760Z,5.4
2019-02-12T20:52:14.998Z,5.4
2019-02-12T20:55:07.860Z,5.3
2019-02-12T20:57:15.568Z,5.3
2019-02-12T21:00:15.952Z,5.4
2019-02-12T21:03:16.065Z,5.3
2019-02-12T21:06:16.699Z,5.3
2019-02-12T21:09:15.905Z,5.3
2019-02-12T21:12:15.485Z,5.2
2019-02-12T21:15:15.300Z,5.2
2019-02-12T21:18:15.555Z,5.1
2019-02-12T21:21:15.134Z,5.0
2019-02-12T21:24:15.904Z,5.0
2019-02-12T21:30:15.953Z,4.9
2019-02-12T21:33:15.908Z,4.8
2019-02-12T21:36:15.466Z,4.8
2019-02-12T21:39:15.514Z,4.8
2019-02-12T21:42:15.201Z,4.7
2019-02-12T21:45:15.770Z,4.7
2019-02-12T21:48:15.544Z,4.7
2019-02-12T21:51:15.826Z,4.7
2019-02-12T21:54:15.715Z,4.7
2019-02-12T21:57:15.286Z,4.6
2019-02-12T22:00:15.694Z,4.6
2019-02-12T22:03:15.098Z,4.6
2019-02-12T22:06:15.586Z,4.5
2019-02-12T22:09:15.291Z,4.5
2019-02-12T22:12:15.783Z,4.5
2019-02-12T22:15:15.303Z,4.5
2019-02-12T22:18:14.943Z,4.4
2019-02-12T22:21:15.471Z,4.4
2019-02-12T22:24:15.978Z,4.4
2019-02-12T22:27:15.497Z,4.4
2019-02-12T22:30:15.008Z,4.4
2019-02-12T22:33:15.656Z,4.4
2019-02-12T22:36:15.232Z,4.4
2019-02-12T22:39:14.911Z,4.4
2019-02-12T22:42:15.524Z,4.4
2019-02-12T22:45:15.228Z,4.4
2019-02-12T22:48:15.833Z,4.4
2019-02-12T22:51:15.309Z,4.4
2019-02-12T22:54:14.977Z,4.3
2019-02-12T22:57:15.460Z,4.3
2019-02-12T23:00:14.969Z,4.3
2019-02-12T23:03:15.390Z,4.3
2019-02-12T23:06:15.017Z,4.2
2019-02-12T23:09:15.669Z,4.2
2019-02-12T23:12:15.361Z,4.2
2019-02-12T23:15:14.972Z,4.2
2019-02-12T23:18:15.672Z,4.2
2019-02-12T23:21:15.244Z,4.2
2019-02-12T23:24:15.808Z,4.1
2019-02-12T23:27:15.237Z,4.1
2019-02-12T23:30:15.026Z,4.1
2019-02-12T23:33:15.588Z,4.1
2019-02-12T23:36:15.118Z,4.1
2019-02-12T23:39:15.611Z,4.1
2019-02-12T23:42:14.968Z,4.0
2019-02-12T23:45:15.615Z,4.0
2019-02-12T23:48:15.065Z,3.9
2019-02-12T23:51:15.414Z,3.9
2019-02-12T23:54:14.913Z,3.9
2019-02-12T23:57:15.423Z,3.9
